Time;durP1;ratioP1;P1;durP2;ratioP2;P2;SDS_P1;SDS_P2;PMS_P1;PMS_P2;Temp;Humidity;BMP_temperature;BMP_pressure;BME280_temperature;BME280_humidity;BME280_pressure;Samples;Min_cycle;Max_cycle;Signal;HPM_P1;HPM_P2
2021/06/12 00:01:20;;;;;;;7.55;6.75;;;18.70;99.90;;;;;;5073594;28;20204;-58
2021/06/12 00:03:47;;;;;;;9.77;6.90;;;18.80;99.90;;;;;;5073157;28;20221;-64
2021/06/12 00:06:13;;;;;;;8.00;6.75;;;18.90;99.90;;;;;;5073160;28;20673;-58
2021/06/12 00:08:39;;;;;;;8.18;6.53;;;18.90;99.90;;;;;;5073264;28;20213;-58
2021/06/12 00:11:07;;;;;;;8.23;6.72;;;19.00;99.90;;;;;;5073477;28;20209;-58
2021/06/12 00:13:33;;;;;;;10.60;6.80;;;19.10;99.90;;;;;;5073009;28;20221;-58
2021/06/12 00:15:59;;;;;;;7.80;6.68;;;19.10;99.90;;;;;;5073122;28;20205;-58
2021/06/12 00:18:26;;;;;;;10.23;6.70;;;19.20;99.90;;;;;;5072923;28;20204;-58
2021/06/12 00:20:55;;;;;;;7.55;6.80;;;19.20;99.90;;;;;;5073222;28;20205;-58
2021/06/12 00:23:21;;;;;;;7.57;6.82;;;19.20;99.90;;;;;;5072821;28;20606;-58
2021/06/12 00:25:47;;;;;;;7.43;6.72;;;19.30;99.90;;;;;;5072657;28;20209;-58
2021/06/12 00:28:14;;;;;;;9.52;6.60;;;19.30;99.90;;;;;;5072573;28;20225;-58
2021/06/12 00:30:41;;;;;;;9.80;6.57;;;19.30;99.90;;;;;;5072912;28;20208;-58
2021/06/12 00:33:07;;;;;;;7.32;6.63;;;19.30;99.90;;;;;;5072808;28;20224;-58
2021/06/12 00:35:33;;;;;;;7.03;6.43;;;19.20;99.90;;;;;;5072713;28;20211;-58
2021/06/12 00:38:00;;;;;;;7.60;6.85;;;19.20;99.90;;;;;;5072435;28;20266;-58
2021/06/12 00:40:26;;;;;;;7.40;6.72;;;19.10;99.90;;;;;;5072812;28;20231;-58
2021/06/12 00:42:52;;;;;;;9.32;6.95;;;19.00;99.90;;;;;;5072346;28;20236;-58
2021/06/12 00:45:21;;;;;;;12.43;7.32;;;18.90;99.90;;;;;;5072310;28;20593;-58
2021/06/12 00:47:49;;;;;;;7.78;7.00;;;18.90;99.90;;;;;;5071997;28;20216;-58
2021/06/12 00:50:17;;;;;;;9.90;7.25;;;18.80;99.90;;;;;;5072579;28;20212;-58
2021/06/12 00:52:43;;;;;;;8.32;7.25;;;18.70;99.90;;;;;;5072027;28;20719;-58
2021/06/12 00:55:12;;;;;;;7.97;7.22;;;18.60;99.90;;;;;;5071969;28;20228;-58
2021/06/12 00:57:39;;;;;;;7.85;7.15;;;18.60;99.90;;;;;;5072151;28;20205;-58
2021/06/12 01:00:07;;;;;;;9.63;7.97;;;18.50;99.90;;;;;;5072534;28;20205;-58
2021/06/12 01:02:36;;;;;;;8.57;7.67;;;18.50;99.90;;;;;;5072406;28;20577;-58
2021/06/12 01:05:04;;;;;;;7.57;6.97;;;18.50;99.90;;;;;;5071941;28;20212;-58
2021/06/12 01:07:30;;;;;;;9.77;7.40;;;18.40;99.90;;;;;;5071915;28;20224;-58
2021/06/12 01:09:56;;;;;;;8.57;7.43;;;18.40;99.90;;;;;;5071894;28;20618;-58
2021/06/12 01:12:31;;;;;;;8.10;7.40;;;18.40;99.90;;;;;;5071809;28;20321;-58
2021/06/12 01:15:05;;;;;;;9.33;8.43;;;18.40;99.90;;;;;;5071845;28;20615;-58
2021/06/12 01:17:33;;;;;;;9.57;7.80;;;18.30;99.90;;;;;;5071811;28;20231;-58
2021/06/12 01:20:17;;;;;;;9.47;8.23;;;18.20;99.90;;;;;;5072111;28;20208;-58
2021/06/12 01:22:58;;;;;;;8.33;7.50;;;18.20;99.90;;;;;;5071705;28;20225;-58
2021/06/12 01:25:38;;;;;;;8.98;8.18;;;18.20;99.90;;;;;;5071471;28;20204;-58
2021/06/12 01:28:19;;;;;;;11.40;7.78;;;18.20;99.90;;;;;;5071601;28;20642;-58
2021/06/12 01:30:49;;;;;;;10.80;7.88;;;18.30;99.90;;;;;;5071821;28;20212;-58
2021/06/12 01:33:15;;;;;;;9.37;8.47;;;18.30;99.90;;;;;;5071463;28;20287;-57
2021/06/12 01:35:45;;;;;;;9.40;8.43;;;18.20;99.90;;;;;;5071215;28;20738;-58
2021/06/12 01:38:16;;;;;;;8.47;7.67;;;18.10;99.90;;;;;;5071596;28;20197;-58
2021/06/12 01:40:46;;;;;;;8.33;7.53;;;18.00;99.90;;;;;;5071480;28;20205;-58
2021/06/12 01:43:13;;;;;;;8.98;8.10;;;17.90;99.90;;;;;;5071344;28;20225;-58
2021/06/12 01:45:41;;;;;;;8.60;7.80;;;17.90;99.90;;;;;;5071200;28;20215;-57
2021/06/12 01:48:09;;;;;;;9.13;8.33;;;17.90;99.90;;;;;;5071044;28;20225;-58
2021/06/12 01:50:37;;;;;;;9.43;8.27;;;17.90;99.90;;;;;;5071155;28;20754;-58
2021/06/12 01:53:04;;;;;;;9.07;8.18;;;17.80;99.90;;;;;;5071474;28;20232;-58
2021/06/12 01:55:32;;;;;;;8.67;7.77;;;17.70;99.90;;;;;;5071074;28;20209;-57
2021/06/12 01:58:01;;;;;;;12.23;8.73;;;17.80;99.90;;;;;;5071098;28;20201;-57
2021/06/12 02:00:28;;;;;;;9.27;8.20;;;17.70;99.90;;;;;;5071034;28;20254;-57
2021/06/12 02:02:55;;;;;;;8.40;7.63;;;17.80;99.90;;;;;;5071131;28;20228;-57
2021/06/12 02:05:24;;;;;;;8.47;7.77;;;17.80;99.90;;;;;;5070782;28;20661;-58
2021/06/12 02:07:52;;;;;;;9.90;8.00;;;17.80;99.90;;;;;;5070551;28;20641;-58
2021/06/12 02:10:20;;;;;;;8.50;7.70;;;17.80;99.90;;;;;;5070367;28;20234;-58
2021/06/12 02:12:46;;;;;;;10.97;8.43;;;17.90;99.90;;;;;;5070893;28;20224;-58
2021/06/12 02:15:13;;;;;;;8.90;8.10;;;17.90;99.90;;;;;;5070681;28;20212;-58
2021/06/12 02:17:40;;;;;;;8.73;7.73;;;17.80;99.90;;;;;;5071004;28;20201;-58
2021/06/12 02:20:08;;;;;;;9.00;7.77;;;17.90;99.90;;;;;;5070954;28;20229;-58
2021/06/12 02:22:41;;;;;;;10.53;8.83;;;17.80;99.90;;;;;;5071339;28;20229;-58
2021/06/12 02:25:09;;;;;;;8.63;7.80;;;17.70;99.90;;;;;;5070787;28;20219;-57
2021/06/12 02:27:36;;;;;;;9.13;8.30;;;17.70;99.90;;;;;;5070974;28;20684;-58
2021/06/12 02:30:05;;;;;;;8.30;7.60;;;17.70;99.90;;;;;;5070659;28;20213;-58
2021/06/12 02:32:37;;;;;;;8.90;8.00;;;17.70;99.90;;;;;;5070736;28;20707;-58
2021/06/12 02:35:04;;;;;;;12.87;8.67;;;17.70;99.90;;;;;;5070900;28;20209;-58
2021/06/12 02:37:30;;;;;;;10.67;7.97;;;17.70;99.90;;;;;;5070758;28;20471;-58
2021/06/12 02:39:58;;;;;;;11.30;8.50;;;17.70;99.90;;;;;;5070590;28;20209;-58
2021/06/12 02:42:24;;;;;;;10.27;8.00;;;17.70;99.90;;;;;;5070639;28;20209;-57
2021/06/12 02:44:50;;;;;;;9.23;8.33;;;17.70;99.90;;;;;;5070783;28;20209;-57
2021/06/12 02:47:19;;;;;;;8.63;7.83;;;17.60;99.90;;;;;;5070573;28;20781;-57
2021/06/12 02:49:46;;;;;;;9.20;8.27;;;17.60;99.90;;;;;;5070510;28;20205;-57
2021/06/12 02:52:18;;;;;;;9.70;8.70;;;17.50;99.90;;;;;;5070678;28;20231;-57
2021/06/12 02:54:46;;;;;;;8.77;7.97;;;17.50;99.90;;;;;;5070540;28;20207;-57
2021/06/12 02:57:15;;;;;;;9.10;8.20;;;17.40;99.90;;;;;;5070982;28;20209;-57
2021/06/12 02:59:44;;;;;;;8.63;7.90;;;17.40;99.90;;;;;;5070789;28;20216;-57
2021/06/12 03:02:12;;;;;;;9.60;8.67;;;17.40;99.90;;;;;;5070564;28;20213;-57
2021/06/12 03:04:40;;;;;;;11.60;8.50;;;17.40;99.90;;;;;;5070310;28;20278;-57
2021/06/12 03:07:07;;;;;;;9.13;8.17;;;17.30;99.90;;;;;;5070491;28;20224;-57
2021/06/12 03:09:34;;;;;;;8.83;8.03;;;17.20;99.90;;;;;;5070514;28;20212;-58
2021/06/12 03:12:01;;;;;;;9.13;7.75;;;17.20;99.90;;;;;;5070708;28;20213;-58
2021/06/12 03:14:31;;;;;;;9.33;8.43;;;17.10;99.90;;;;;;5071102;28;20221;-57
2021/06/12 03:16:58;;;;;;;9.53;8.63;;;17.20;99.90;;;;;;5070438;28;20208;-57
2021/06/12 03:19:26;;;;;;;12.33;8.67;;;17.20;99.90;;;;;;5070181;28;20209;-57
2021/06/12 03:21:53;;;;;;;13.00;10.17;;;17.20;99.90;;;;;;5073648;28;20201;-58
2021/06/12 03:24:20;;;;;;;12.07;9.67;;;17.30;99.90;;;;;;5073858;28;20387;-57
2021/06/12 03:26:47;;;;;;;9.13;8.13;;;17.30;99.90;;;;;;5073851;28;20283;-58
2021/06/12 03:29:14;;;;;;;9.97;8.27;;;17.30;99.90;;;;;;5073613;28;20668;-57
2021/06/12 03:31:42;;;;;;;11.03;9.90;;;17.20;99.90;;;;;;5073733;28;20258;-57
2021/06/12 03:34:08;;;;;;;9.50;8.60;;;17.30;99.90;;;;;;5073481;28;20229;-58
2021/06/12 03:36:35;;;;;;;9.47;8.53;;;17.30;99.90;;;;;;5073606;28;20213;-57
2021/06/12 03:39:01;;;;;;;9.30;8.37;;;17.30;99.90;;;;;;5073610;28;20224;-57
2021/06/12 03:41:28;;;;;;;9.47;8.57;;;17.30;99.90;;;;;;5073948;28;20212;-57
2021/06/12 03:43:54;;;;;;;9.50;7.90;;;17.40;99.90;;;;;;5073468;28;20224;-57
2021/06/12 03:46:21;;;;;;;9.33;8.17;;;17.40;99.90;;;;;;5073504;28;20209;-58
2021/06/12 03:48:50;;;;;;;9.30;8.50;;;17.40;99.90;;;;;;5073289;28;20229;-57
2021/06/12 03:51:18;;;;;;;11.57;8.93;;;17.30;99.90;;;;;;5073942;28;20703;-57
2021/06/12 03:53:46;;;;;;;9.90;8.37;;;17.20;99.90;;;;;;5073232;28;20732;-58
2021/06/12 03:56:14;;;;;;;8.97;8.07;;;17.20;99.90;;;;;;5073546;28;20296;-57
2021/06/12 03:58:41;;;;;;;8.87;7.97;;;17.30;99.90;;;;;;5073607;28;20208;-57
2021/06/12 04:01:08;;;;;;;8.47;7.60;;;17.40;99.90;;;;;;5073306;28;20208;-57
2021/06/12 04:03:34;;;;;;;10.20;7.70;;;17.50;99.90;;;;;;5072874;28;20244;-58
2021/06/12 04:06:01;;;;;;;10.30;8.27;;;17.60;99.90;;;;;;5073282;28;20205;-58
2021/06/12 04:08:28;;;;;;;9.70;8.70;;;17.70;99.90;;;;;;5072951;28;20227;-58
2021/06/12 04:10:54;;;;;;;8.83;7.90;;;17.80;99.90;;;;;;5073243;28;20205;-58
2021/06/12 04:13:20;;;;;;;10.53;8.00;;;17.80;99.90;;;;;;5073027;28;20224;-57
2021/06/12 04:15:46;;;;;;;8.30;7.40;;;17.90;99.90;;;;;;5072803;28;20282;-58
2021/06/12 04:18:14;;;;;;;10.77;8.00;;;18.00;99.90;;;;;;5072736;28;20201;-58
2021/06/12 04:20:40;;;;;;;8.68;7.97;;;18.00;99.90;;;;;;5072932;28;20742;-58
2021/06/12 04:23:08;;;;;;;8.98;8.07;;;18.10;99.90;;;;;;5073095;28;20411;-58
2021/06/12 04:25:35;;;;;;;9.30;7.50;;;18.20;99.90;;;;;;5072685;28;20581;-59
2021/06/12 04:28:01;;;;;;;7.78;7.07;;;18.30;99.90;;;;;;5072775;28;20224;-58
2021/06/12 04:30:27;;;;;;;8.57;7.72;;;18.30;99.90;;;;;;5072965;28;20216;-58
2021/06/12 04:32:53;;;;;;;8.93;8.02;;;18.40;99.90;;;;;;5072066;28;20236;-58
2021/06/12 04:35:20;;;;;;;11.25;7.15;;;18.60;99.90;;;;;;5072886;28;20209;-58
2021/06/12 04:37:46;;;;;;;8.63;7.03;;;18.80;99.90;;;;;;5072975;28;20204;-58
2021/06/12 04:40:15;;;;;;;8.57;7.70;;;19.00;99.90;;;;;;5072776;28;20258;-59
2021/06/12 04:42:41;;;;;;;8.75;7.78;;;19.20;99.90;;;;;;5072441;28;20228;-58
2021/06/12 04:45:09;;;;;;;10.45;7.05;;;19.40;99.90;;;;;;5072409;28;20219;-58
2021/06/12 04:47:36;;;;;;;8.02;7.22;;;19.60;99.90;;;;;;5072821;28;20278;-58
2021/06/12 04:50:04;;;;;;;8.93;7.00;;;19.90;99.90;;;;;;5072779;28;20265;-57
2021/06/12 04:52:30;;;;;;;6.90;6.30;;;20.30;99.90;;;;;;5072420;28;20209;-57
2021/06/12 04:54:56;;;;;;;6.95;6.35;;;20.80;99.90;;;;;;5072655;28;20215;-57
2021/06/12 04:57:23;;;;;;;7.03;6.32;;;21.00;99.90;;;;;;5072086;28;20208;-58
2021/06/12 04:59:50;;;;;;;8.20;6.60;;;21.60;99.90;;;;;;5072133;28;20282;-58
2021/06/12 05:02:16;;;;;;;9.50;6.07;;;22.50;99.90;;;;;;5072113;28;20205;-59
2021/06/12 05:04:42;;;;;;;6.63;6.00;;;23.40;99.90;;;;;;5072032;28;20201;-59
2021/06/12 05:07:08;;;;;;;6.45;5.85;;;24.40;99.90;;;;;;5072203;28;20229;-58
2021/06/12 05:09:35;;;;;;;7.28;5.80;;;25.20;99.90;;;;;;5071786;28;20200;-58
2021/06/12 05:12:01;;;;;;;6.10;5.50;;;25.80;99.90;;;;;;5071886;28;20680;-58
2021/06/12 05:14:28;;;;;;;6.47;5.72;;;26.20;99.90;;;;;;5071559;28;20229;-59
2021/06/12 05:16:54;;;;;;;6.18;5.43;;;26.70;99.90;;;;;;5071906;28;20200;-59
2021/06/12 05:19:21;;;;;;;6.30;5.70;;;27.20;99.90;;;;;;5071812;28;20215;-59
2021/06/12 05:21:48;;;;;;;5.82;5.32;;;27.60;99.30;;;;;;5071860;28;20212;-58
2021/06/12 05:24:14;;;;;;;6.63;5.60;;;27.70;98.10;;;;;;5071564;28;20221;-59
2021/06/12 05:26:41;;;;;;;5.82;5.32;;;27.60;97.90;;;;;;5071637;28;20216;-59
2021/06/12 05:29:07;;;;;;;6.47;5.45;;;27.40;97.80;;;;;;5071203;28;20605;-59
2021/06/12 05:31:34;;;;;;;6.47;5.93;;;27.60;97.50;;;;;;5071676;28;20258;-59
2021/06/12 05:34:01;;;;;;;7.15;5.88;;;27.60;97.00;;;;;;5071525;28;20224;-59
2021/06/12 05:36:27;;;;;;;6.07;5.57;;;27.50;97.20;;;;;;5071623;28;20207;-59
2021/06/12 05:38:53;;;;;;;6.10;5.60;;;27.60;97.10;;;;;;5071475;28;20201;-59
2021/06/12 05:41:20;;;;;;;7.70;5.60;;;27.90;96.60;;;;;;5071646;28;20752;-60
2021/06/12 05:43:46;;;;;;;7.22;5.03;;;28.10;95.80;;;;;;5071247;28;20229;-59
2021/06/12 05:46:12;;;;;;;7.10;5.07;;;28.40;95.20;;;;;;5071669;28;20209;-59
2021/06/12 05:48:40;;;;;;;6.93;5.50;;;28.50;94.40;;;;;;5071551;28;20765;-59
2021/06/12 05:51:06;;;;;;;5.88;5.28;;;28.50;93.90;;;;;;5071677;28;20212;-60
2021/06/12 05:53:32;;;;;;;7.45;5.00;;;28.90;93.70;;;;;;5071445;28;20235;-59
2021/06/12 05:55:59;;;;;;;5.80;5.25;;;29.70;92.10;;;;;;5071369;28;20220;-59
2021/06/12 05:58:25;;;;;;;5.47;4.85;;;30.60;90.30;;;;;;5071402;28;20259;-59
2021/06/12 06:00:51;;;;;;;5.95;5.32;;;30.90;87.40;;;;;;5071479;28;20632;-59
2021/06/12 06:03:17;;;;;;;5.32;4.82;;;30.70;86.90;;;;;;5071569;28;20225;-59
2021/06/12 06:05:45;;;;;;;7.00;4.70;;;30.40;87.10;;;;;;5071200;28;20223;-59
2021/06/12 06:08:11;;;;;;;6.18;5.10;;;30.60;87.30;;;;;;5071051;28;20221;-59
2021/06/12 06:10:37;;;;;;;6.20;4.80;;;31.40;84.70;;;;;;5071049;28;20212;-60
2021/06/12 06:13:05;;;;;;;6.70;4.68;;;32.70;79.00;;;;;;5071225;28;20248;-59
2021/06/12 06:15:31;;;;;;;6.22;5.05;;;33.20;75.80;;;;;;5070842;28;20689;-60
2021/06/12 06:17:57;;;;;;;5.55;4.80;;;33.90;72.70;;;;;;5070838;28;20208;-59
2021/06/12 06:20:24;;;;;;;6.78;4.65;;;34.50;70.00;;;;;;5070940;28;20205;-60
2021/06/12 06:22:51;;;;;;;5.97;4.65;;;34.90;67.50;;;;;;5071482;28;20229;-59
2021/06/12 06:25:19;;;;;;;7.90;4.82;;;35.10;66.00;;;;;;5071148;28;20205;-60
2021/06/12 06:27:45;;;;;;;6.25;4.50;;;35.60;64.00;;;;;;5070785;28;20225;-60
2021/06/12 06:30:13;;;;;;;5.10;4.40;;;36.30;62.70;;;;;;5070776;28;20375;-60
2021/06/12 06:32:39;;;;;;;6.22;4.28;;;37.00;59.70;;;;;;5070840;28;20592;-60
2021/06/12 06:35:06;;;;;;;5.85;4.72;;;37.80;58.10;;;;;;5070747;28;20204;-60
2021/06/12 06:37:32;;;;;;;5.93;4.72;;;37.70;57.60;;;;;;5070816;28;20201;-60
2021/06/12 06:40:00;;;;;;;7.63;4.60;;;37.90;56.70;;;;;;5070644;28;20550;-60
2021/06/12 06:42:26;;;;;;;5.43;4.45;;;38.40;55.60;;;;;;5071241;28;20208;-60
2021/06/12 06:44:52;;;;;;;5.45;4.18;;;39.00;54.70;;;;;;5070245;28;20201;-60
2021/06/12 06:47:18;;;;;;;5.75;4.55;;;39.70;52.50;;;;;;5070534;28;20204;-60
2021/06/12 06:49:44;;;;;;;8.13;4.10;;;40.60;51.60;;;;;;5070563;28;20212;-58
2021/06/12 06:52:10;;;;;;;5.25;4.28;;;41.60;48.70;;;;;;5070562;28;20213;-59
2021/06/12 06:54:37;;;;;;;5.20;4.20;;;42.00;48.20;;;;;;5070339;28;20317;-57
2021/06/12 06:57:05;;;;;;;5.68;3.85;;;42.40;46.20;;;;;;5074872;28;20239;-58
2021/06/12 06:59:33;;;;;;;4.50;3.88;;;42.00;46.70;;;;;;5075083;28;20200;-59
2021/06/12 07:01:59;;;;;;;6.32;4.18;;;41.70;46.50;;;;;;5074857;28;20209;-59
2021/06/12 07:04:25;;;;;;;5.72;3.85;;;41.10;47.10;;;;;;5074705;28;20229;-58
2021/06/12 07:06:51;;;;;;;4.65;4.25;;;40.40;47.30;;;;;;5074847;28;20216;-59
2021/06/12 07:09:18;;;;;;;4.55;3.65;;;39.50;48.90;;;;;;5074781;28;20233;-59
2021/06/12 07:11:44;;;;;;;4.30;3.90;;;39.30;48.60;;;;;;5074513;28;20685;-59
2021/06/12 07:14:11;;;;;;;6.20;3.72;;;39.70;48.20;;;;;;5074298;28;20224;-59
2021/06/12 07:16:38;;;;;;;5.18;3.80;;;40.60;46.50;;;;;;5073965;28;20676;-59
2021/06/12 07:19:04;;;;;;;6.15;4.07;;;41.40;45.90;;;;;;5074265;28;20638;-59
2021/06/12 07:21:30;;;;;;;6.18;3.58;;;42.50;44.70;;;;;;5074128;28;20209;-58
2021/06/12 07:23:56;;;;;;;3.60;3.30;;;43.20;44.00;;;;;;5074171;28;20224;-59
2021/06/12 07:26:22;;;;;;;5.03;3.67;;;43.60;42.90;;;;;;5074329;28;20566;-59
2021/06/12 07:28:50;;;;;;;7.15;3.30;;;43.90;42.50;;;;;;5073825;28;20269;-59
2021/06/12 07:31:18;;;;;;;4.65;3.45;;;43.90;41.90;;;;;;5074495;28;20281;-60
2021/06/12 07:33:44;;;;;;;3.38;3.00;;;43.70;40.70;;;;;;5073726;28;20225;-60
2021/06/12 07:36:10;;;;;;;4.80;3.33;;;42.90;41.40;;;;;;5073739;28;20212;-59
2021/06/12 07:38:36;;;;;;;4.25;3.30;;;42.00;42.30;;;;;;5074018;28;20208;-59
2021/06/12 07:41:03;;;;;;;5.78;2.92;;;41.50;42.80;;;;;;5074173;28;20201;-59
2021/06/12 07:43:29;;;;;;;4.75;3.75;;;41.30;43.50;;;;;;5073930;28;20323;-59
2021/06/12 07:45:55;;;;;;;3.13;2.90;;;41.80;42.90;;;;;;5073975;28;20204;-59
2021/06/12 07:48:23;;;;;;;3.35;3.03;;;42.20;41.30;;;;;;5073649;28;20262;-60
2021/06/12 07:50:49;;;;;;;4.88;3.03;;;42.20;41.90;;;;;;5074249;28;20204;-58
2021/06/12 07:53:15;;;;;;;3.28;2.75;;;42.10;41.00;;;;;;5074057;28;20239;-59
2021/06/12 07:55:41;;;;;;;4.72;2.92;;;42.20;41.30;;;;;;5073346;28;20201;-60
2021/06/12 07:58:07;;;;;;;3.95;3.00;;;42.40;40.90;;;;;;5073220;28;20201;-60
2021/06/12 08:00:34;;;;;;;4.75;3.03;;;42.90;39.80;;;;;;5073401;28;20201;-59
2021/06/12 08:03:00;;;;;;;5.28;3.10;;;42.40;39.80;;;;;;5073731;28;20235;-59
2021/06/12 08:05:27;;;;;;;3.42;3.10;;;41.40;41.90;;;;;;5073128;28;20201;-60
2021/06/12 08:07:54;;;;;;;5.50;3.20;;;41.20;42.30;;;;;;5072966;28;20232;-60
2021/06/12 08:10:20;;;;;;;3.40;3.10;;;40.80;42.70;;;;;;5073206;28;20209;-59
2021/06/12 08:12:46;;;;;;;3.90;3.55;;;40.40;43.40;;;;;;5073383;28;20228;-59
2021/06/12 08:15:14;;;;;;;6.00;3.83;;;39.90;43.60;;;;;;5073038;28;20216;-59
2021/06/12 08:17:40;;;;;;;5.20;3.83;;;39.30;45.00;;;;;;5073003;28;20288;-59
2021/06/12 08:20:08;;;;;;;3.97;3.60;;;39.50;45.10;;;;;;5073053;28;20691;-59
2021/06/12 08:22:35;;;;;;;4.68;3.75;;;40.00;44.80;;;;;;5073242;28;20204;-59
2021/06/12 08:25:01;;;;;;;3.63;3.28;;;40.90;43.80;;;;;;5072733;28;20247;-59
2021/06/12 08:27:28;;;;;;;3.85;3.33;;;41.40;42.80;;;;;;5072832;28;20212;-59
2021/06/12 08:29:54;;;;;;;4.88;3.20;;;41.40;42.90;;;;;;5072776;28;20213;-59
2021/06/12 08:32:20;;;;;;;7.82;3.50;;;41.50;42.40;;;;;;5072707;28;20209;-59
2021/06/12 08:34:46;;;;;;;4.95;4.07;;;41.30;42.50;;;;;;5072939;28;20213;-59
2021/06/12 08:37:12;;;;;;;6.18;3.33;;;41.20;42.60;;;;;;5072915;28;20201;-58
2021/06/12 08:39:40;;;;;;;5.88;3.95;;;40.60;43.90;;;;;;5072857;28;20196;-58
2021/06/12 08:42:07;;;;;;;7.15;4.55;;;40.40;44.40;;;;;;5072717;28;20209;-59
2021/06/12 08:44:35;;;;;;;4.97;3.70;;;40.10;44.90;;;;;;5072877;28;20526;-59
2021/06/12 08:47:01;;;;;;;5.28;4.53;;;39.60;46.00;;;;;;5072340;28;20231;-59
2021/06/12 08:49:28;;;;;;;4.32;3.92;;;39.50;46.40;;;;;;5072432;28;20605;-59
2021/06/12 08:51:54;;;;;;;5.95;3.85;;;38.80;46.60;;;;;;5072600;28;20225;-58
2021/06/12 08:54:23;;;;;;;5.97;3.25;;;38.00;48.70;;;;;;5072162;28;20237;-59
2021/06/12 08:56:50;;;;;;;7.55;3.33;;;37.00;49.80;;;;;;5072475;28;20599;-58
2021/06/12 08:59:17;;;;;;;4.43;4.05;;;36.00;51.80;;;;;;5071865;28;20201;-59
2021/06/12 09:01:44;;;;;;;7.40;3.72;;;35.40;53.30;;;;;;5072369;28;20205;-59
2021/06/12 09:04:11;;;;;;;6.10;4.30;;;34.70;55.40;;;;;;5072031;28;20229;-59
2021/06/12 09:06:37;;;;;;;5.95;3.50;;;34.00;56.00;;;;;;5072260;28;20290;-59
2021/06/12 09:09:04;;;;;;;4.75;3.65;;;33.60;57.00;;;;;;5072015;28;20252;-59
2021/06/12 09:11:33;;;;;;;7.47;4.20;;;33.20;58.60;;;;;;5072283;28;20221;-60
2021/06/12 09:14:02;;;;;;;3.97;3.38;;;33.00;59.80;;;;;;5071731;28;20619;-59
2021/06/12 09:16:31;;;;;;;3.92;3.45;;;32.60;60.30;;;;;;5071778;28;20208;-59
2021/06/12 09:19:02;;;;;;;6.18;4.25;;;32.30;61.70;;;;;;5071116;28;20211;-59
2021/06/12 09:21:30;;;;;;;6.03;4.28;;;32.10;62.00;;;;;;5071824;28;20209;-59
2021/06/12 09:23:58;;;;;;;5.50;3.60;;;31.90;63.50;;;;;;5071484;28;20235;-59
2021/06/12 09:26:41;;;;;;;4.38;3.75;;;31.80;64.30;;;;;;5071470;28;20673;-59
2021/06/12 09:29:09;;;;;;;3.17;2.80;;;31.50;64.70;;;;;;5071343;28;20592;-58
2021/06/12 09:31:44;;;;;;;7.05;3.70;;;31.60;65.20;;;;;;5071636;28;20204;-59
2021/06/12 09:34:12;;;;;;;5.13;2.53;;;31.70;66.10;;;;;;5071414;28;20228;-59
2021/06/12 09:36:39;;;;;;;3.58;2.63;;;31.60;65.00;;;;;;5071414;28;20226;-58
2021/06/12 09:39:07;;;;;;;2.70;2.50;;;31.40;65.20;;;;;;5071295;28;20572;-58
2021/06/12 09:41:34;;;;;;;2.67;2.20;;;31.20;66.10;;;;;;5071536;28;20205;-58
2021/06/12 09:44:00;;;;;;;5.80;2.25;;;31.00;66.30;;;;;;5071414;28;20225;-58
2021/06/12 09:46:39;;;;;;;4.63;2.33;;;31.00;66.60;;;;;;5071697;28;20652;-59
2021/06/12 09:49:06;;;;;;;2.90;2.60;;;31.00;67.30;;;;;;5071185;28;20221;-59
2021/06/12 09:51:33;;;;;;;4.25;2.60;;;31.30;66.10;;;;;;5071101;28;20676;-58
2021/06/12 09:54:01;;;;;;;2.92;2.63;;;31.50;65.00;;;;;;5070846;28;20232;-59
2021/06/12 09:56:28;;;;;;;6.45;3.05;;;31.70;65.50;;;;;;5071387;28;20250;-59
2021/06/12 09:58:55;;;;;;;3.78;2.90;;;31.70;65.40;;;;;;5071361;28;20205;-59
2021/06/12 10:01:24;;;;;;;5.10;2.55;;;31.60;65.70;;;;;;5071661;28;20501;-59
2021/06/12 10:04:08;;;;;;;4.75;2.88;;;31.40;65.50;;;;;;5070840;28;20228;-58
2021/06/12 10:06:34;;;;;;;7.03;2.78;;;31.30;66.50;;;;;;5071587;28;20587;-58
2021/06/12 10:09:03;;;;;;;3.70;2.58;;;31.20;67.40;;;;;;5071197;28;20221;-58
2021/06/12 10:11:31;;;;;;;3.22;2.40;;;31.10;68.50;;;;;;5071249;28;20200;-60
2021/06/12 10:13:58;;;;;;;2.75;2.47;;;31.20;67.30;;;;;;5070934;28;20290;-58
2021/06/12 10:16:25;;;;;;;5.32;2.60;;;31.40;67.10;;;;;;5071290;28;20220;-59
2021/06/12 10:18:54;;;;;;;6.10;2.60;;;31.50;66.50;;;;;;5071151;28;20236;-59
2021/06/12 10:21:22;;;;;;;4.50;2.90;;;31.50;66.60;;;;;;5071203;28;20552;-58
2021/06/12 10:23:49;;;;;;;8.15;2.90;;;31.40;67.60;;;;;;5070564;28;20232;-58
2021/06/12 10:26:19;;;;;;;5.13;3.08;;;31.30;68.70;;;;;;5071226;28;20212;-59
2021/06/12 10:28:45;;;;;;;6.55;2.72;;;31.20;68.10;;;;;;5070671;28;20225;-59
2021/06/12 10:31:14;;;;;;;4.22;2.60;;;30.90;67.50;;;;;;5073661;28;20747;-58
2021/06/12 10:33:42;;;;;;;4.28;2.60;;;30.60;69.60;;;;;;5074971;28;20712;-58
2021/06/12 10:36:15;;;;;;;3.45;2.67;;;30.40;69.70;;;;;;5075396;28;20590;-59
2021/06/12 10:38:41;;;;;;;5.78;2.67;;;30.10;69.80;;;;;;5074984;28;20207;-59
2021/06/12 10:41:16;;;;;;;4.72;2.50;;;29.90;69.50;;;;;;5075240;28;20209;-59
2021/06/12 10:43:43;;;;;;;4.72;2.95;;;29.70;70.10;;;;;;5075302;28;20220;-58
2021/06/12 10:46:15;;;;;;;4.55;2.40;;;29.60;71.20;;;;;;5075455;28;20215;-60
2021/06/12 10:48:44;;;;;;;4.72;2.40;;;29.60;72.20;;;;;;5074634;28;20283;-59
2021/06/12 10:51:15;;;;;;;5.55;2.60;;;29.60;72.20;;;;;;5075256;28;20288;-59
2021/06/12 10:53:48;;;;;;;5.32;2.55;;;29.70;72.20;;;;;;5074755;28;20240;-58
2021/06/12 10:56:32;;;;;;;3.40;2.28;;;29.90;71.90;;;;;;5075177;28;20201;-59
2021/06/12 10:58:59;;;;;;;5.05;2.28;;;30.00;71.90;;;;;;5075148;28;20269;-59
2021/06/12 11:01:25;;;;;;;6.30;2.05;;;30.00;69.70;;;;;;5074954;28;20201;-58
2021/06/12 11:03:58;;;;;;;2.83;2.45;;;30.00;70.10;;;;;;5071916;28;20442;-59
2021/06/12 11:06:39;;;;;;;4.43;2.60;;;30.00;70.60;;;;;;5074401;28;20266;-59
2021/06/12 11:09:38;;;;;;;4.25;2.58;;;30.00;71.50;;;;;;5074518;28;20224;-59
2021/06/12 11:12:26;;;;;;;4.03;2.85;;;29.90;72.40;;;;;;5074919;28;20209;-65
2021/06/12 11:14:57;;;;;;;3.83;2.40;;;30.00;72.60;;;;;;5074250;28;20205;-60
2021/06/12 11:17:23;;;;;;;3.67;2.80;;;29.90;72.00;;;;;;5074575;28;20632;-63
2021/06/12 11:19:51;;;;;;;4.15;3.00;;;29.90;71.80;;;;;;5074137;28;20292;-62
2021/06/12 11:22:30;;;;;;;3.72;2.65;;;29.80;73.00;;;;;;5074165;28;20208;-61
2021/06/12 11:24:59;;;;;;;6.75;2.58;;;29.70;73.00;;;;;;5073915;28;20204;-62
2021/06/12 11:27:27;;;;;;;5.82;2.45;;;29.60;73.30;;;;;;5073861;28;20205;-62
2021/06/12 11:30:10;;;;;;;3.65;2.47;;;29.70;73.40;;;;;;5073962;28;20282;-61
2021/06/12 11:32:37;;;;;;;4.43;2.95;;;29.80;72.30;;;;;;5073808;28;20771;-61
2021/06/12 11:35:04;;;;;;;2.83;2.22;;;29.90;73.60;;;;;;5073742;28;20205;-61
2021/06/12 11:37:31;;;;;;;6.60;2.65;;;30.10;69.30;;;;;;5073750;28;20205;-61
2021/06/12 11:40:01;;;;;;;3.80;2.67;;;30.20;71.00;;;;;;5073845;28;20201;-62
2021/06/12 11:42:40;;;;;;;3.85;1.92;;;30.40;70.30;;;;;;5073547;28;20205;-64
2021/06/12 11:45:19;;;;;;;4.80;2.28;;;30.50;65.90;;;;;;5073725;28;20248;-60
2021/06/12 11:47:46;;;;;;;5.00;1.98;;;30.40;67.30;;;;;;5073373;28;20672;-59
2021/06/12 11:50:13;;;;;;;3.53;1.92;;;30.40;64.00;;;;;;5073362;28;20255;-59
2021/06/12 11:52:42;;;;;;;5.03;2.10;;;30.30;63.60;;;;;;5073507;28;20239;-60
2021/06/12 11:55:14;;;;;;;2.95;1.95;;;30.30;62.80;;;;;;5070807;28;20462;-65
2021/06/12 11:57:42;;;;;;;5.43;2.08;;;30.10;65.00;;;;;;5073156;28;20280;-63
2021/06/12 12:00:30;;;;;;;4.53;2.00;;;30.10;65.10;;;;;;5073352;28;20255;-63
2021/06/12 12:03:05;;;;;;;5.93;2.80;;;29.90;67.50;;;;;;5073600;28;20233;-59
2021/06/12 12:05:34;;;;;;;2.45;2.00;;;29.90;66.40;;;;;;5072923;28;20707;-59
2021/06/12 12:08:02;;;;;;;3.60;2.03;;;30.10;67.80;;;;;;5073043;28;20227;-59
2021/06/12 12:10:29;;;;;;;2.40;2.03;;;30.20;66.80;;;;;;5073025;28;20201;-59
2021/06/12 12:12:55;;;;;;;3.15;2.25;;;30.30;67.70;;;;;;5072849;28;20220;-59
2021/06/12 12:15:39;;;;;;;2.25;1.50;;;30.20;66.50;;;;;;5072921;28;20270;-59
2021/06/12 12:18:07;;;;;;;4.03;1.70;;;30.20;64.00;;;;;;5073035;28;20204;-59
2021/06/12 12:20:38;;;;;;;3.83;1.38;;;30.10;64.50;;;;;;5073147;28;20205;-59
2021/06/12 12:23:20;;;;;;;2.72;1.40;;;30.10;64.00;;;;;;5072864;28;20225;-59
2021/06/12 12:25:46;;;;;;;6.57;1.60;;;30.30;64.50;;;;;;5072995;28;20200;-60
2021/06/12 12:28:19;;;;;;;4.25;1.80;;;30.40;64.10;;;;;;5072787;28;20224;-59
2021/06/12 12:30:46;;;;;;;4.47;1.77;;;30.50;64.20;;;;;;5073132;28;20209;-58
2021/06/12 12:33:14;;;;;;;3.85;1.77;;;30.40;62.40;;;;;;5072676;28;20282;-59
2021/06/12 12:35:40;;;;;;;3.38;1.75;;;30.10;64.50;;;;;;5072754;28;20205;-58
2021/06/12 12:38:15;;;;;;;3.42;1.70;;;30.70;63.90;;;;;;5072406;28;20582;-59
2021/06/12 12:40:44;;;;;;;3.20;1.60;;;30.90;63.50;;;;;;5072746;28;20603;-59
2021/06/12 12:43:13;;;;;;;1.95;1.73;;;31.10;61.20;;;;;;5072784;28;20282;-60
2021/06/12 12:45:41;;;;;;;3.17;1.70;;;31.10;61.20;;;;;;5072769;28;20216;-59
2021/06/12 12:48:08;;;;;;;5.05;1.70;;;31.20;62.50;;;;;;5072302;28;20224;-59
2021/06/12 12:50:35;;;;;;;5.25;1.77;;;31.40;63.00;;;;;;5072411;28;20204;-59